createdAt,value
2023-02-24T00:00:31.055Z,100286.56
2023-02-24T00:02:59.283Z,100289.91
2023-02-24T00:05:26.956Z,100282.13
2023-02-24T00:07:54.669Z,100270.03
2023-02-24T00:10:22.495Z,100268.31
2023-02-24T00:12:53.997Z,100253.91
2023-02-24T00:15:21.715Z,100263.28
2023-02-24T00:17:49.388Z,100254.66
2023-02-24T00:20:19.046Z,100247.88
2023-02-24T00:22:46.759Z,100246.19
2023-02-24T00:25:14.757Z,100249.50
2023-02-24T00:27:42.783Z,100246.88
2023-02-24T00:30:12.713Z,100245.88
2023-02-24T00:32:40.531Z,100236.38
2023-02-24T00:35:09.579Z,100223.41
2023-02-24T00:37:37.270Z,100211.44
2023-02-24T00:40:11.268Z,100216.97
2023-02-24T00:42:39.899Z,100210.91
2023-02-24T00:45:10.347Z,100203.94
2023-02-24T00:47:40.194Z,100207.25
2023-02-24T00:50:08.427Z,100198.75
2023-02-24T00:52:37.019Z,100211.81
2023-02-24T00:55:13.912Z,100201.66
2023-02-24T00:57:42.281Z,100206.94
2023-02-24T01:00:14.135Z,100207.06
2023-02-24T01:02:44.746Z,100201.06
2023-02-24T01:05:13.115Z,100199.50
2023-02-24T01:07:41.011Z,100196.16
2023-02-24T01:10:08.866Z,100185.97
2023-02-24T01:12:49.730Z,100195.31
2023-02-24T01:15:18.195Z,100184.19
2023-02-24T01:17:47.300Z,100178.22
2023-02-24T01:20:19.062Z,100174.75
2023-02-24T01:22:48.125Z,100179.88
2023-02-24T01:25:15.764Z,100173.88
2023-02-24T01:27:43.469Z,100173.88
2023-02-24T01:30:15.923Z,100163.59
2023-02-24T01:32:44.146Z,100164.28
2023-02-24T01:35:14.584Z,100160.13
2023-02-24T01:37:43.180Z,100158.50
2023-02-24T01:40:18.620Z,100157.59
2023-02-24T01:42:49.496Z,100160.16
2023-02-24T01:45:28.694Z,100149.16
2023-02-24T01:47:58.753Z,100144.81
2023-02-24T01:50:28.109Z,100144.69
2023-02-24T01:52:58.251Z,100146.47
2023-02-24T01:55:29.241Z,100150.56
2023-02-24T01:57:57.444Z,100133.56
2023-02-24T02:00:38.385Z,100147.38
2023-02-24T02:03:12.465Z,100144.13
2023-02-24T02:05:45.286Z,100136.47
2023-02-24T02:08:14.595Z,100132.25
2023-02-24T02:10:44.164Z,100125.63
2023-02-24T02:13:13.183Z,100134.19
2023-02-24T02:15:48.304Z,100127.22
2023-02-24T02:18:19.054Z,100123.75
2023-02-24T02:20:57.697Z,100121.28
2023-02-24T02:23:44.022Z,100112.78
2023-02-24T02:26:21.753Z,100111.88
2023-02-24T02:29:01.229Z,100109.28
2023-02-24T02:31:50.902Z,100108.44
2023-02-24T02:34:30.503Z,100107.63
2023-02-24T02:37:02.726Z,100106.66
2023-02-24T02:39:38.032Z,100104.09
2023-02-24T02:42:15.001Z,100098.78
2023-02-24T02:44:47.597Z,100097.00
2023-02-24T02:47:19.257Z,100098.63
2023-02-24T02:49:50.952Z,100082.53
2023-02-24T02:52:20.560Z,100081.75
2023-02-24T02:54:50.719Z,100080.81
2023-02-24T02:57:21.366Z,100076.50
2023-02-24T02:59:52.329Z,100069.69
2023-02-24T03:02:21.127Z,100066.28
2023-02-24T03:04:52.417Z,100081.75
2023-02-24T03:07:21.033Z,100067.97
2023-02-24T03:09:51.636Z,100067.84
2023-02-24T03:12:21.464Z,100070.41
2023-02-24T03:14:51.468Z,100069.38
2023-02-24T03:17:22.327Z,100069.31
2023-02-24T03:20:00.239Z,100054.75
2023-02-24T03:22:34.634Z,100058.13
2023-02-24T03:25:05.013Z,100057.50
2023-02-24T03:27:35.419Z,100048.94
2023-02-24T03:30:07.098Z,100054.25
2023-02-24T03:32:44.224Z,100052.47
2023-02-24T03:35:16.990Z,100042.25
2023-02-24T03:37:45.292Z,100033.78
2023-02-24T03:40:15.170Z,100034.78
2023-02-24T03:42:44.650Z,100033.06
2023-02-24T03:45:12.481Z,100032.94
2023-02-24T03:47:40.860Z,100026.97
2023-02-24T03:50:13.935Z,100024.50
2023-02-24T03:52:47.026Z,100023.78
2023-02-24T03:55:22.637Z,100021.16
2023-02-24T03:58:00.978Z,100020.34
2023-02-24T04:00:34.402Z,100019.50
2023-02-24T04:03:10.839Z,100023.78
2023-02-24T04:05:47.489Z,100021.28
2023-02-24T04:08:17.021Z,100022.91
2023-02-24T04:10:52.660Z,100012.50
2023-02-24T04:13:25.114Z,100009.22
2023-02-24T04:15:58.475Z,100006.03
2023-02-24T04:18:28.461Z,100013.09
2023-02-24T04:20:59.884Z,100006.94
2023-02-24T04:23:31.626Z,100015.44
2023-02-24T04:25:59.299Z,100004.38
2023-02-24T04:28:28.612Z,99994.94
2023-02-24T04:30:58.908Z,100002.41
2023-02-24T04:33:26.780Z,99997.28
2023-02-24T04:35:54.561Z,99998.09
2023-02-24T04:38:24.176Z,100005.00
2023-02-24T04:40:51.992Z,100000.72
2023-02-24T04:43:19.788Z,99986.28
2023-02-24T04:45:47.405Z,99987.31
2023-02-24T04:48:15.207Z,99985.50
2023-02-24T04:50:44.530Z,99983.81
2023-02-24T04:53:13.509Z,99976.97
2023-02-24T04:55:43.451Z,99977.91
2023-02-24T04:58:11.904Z,99979.66
2023-02-24T05:00:41.607Z,99978.75
2023-02-24T05:03:11.321Z,99977.03
2023-02-24T05:05:39.161Z,99981.44
2023-02-24T05:08:08.108Z,99968.72
2023-02-24T05:10:38.282Z,99967.94
2023-02-24T05:13:09.125Z,99961.06
2023-02-24T05:15:41.176Z,99960.22
2023-02-24T05:18:09.616Z,99951.16
2023-02-24T05:20:55.284Z,99944.41
2023-02-24T05:23:26.180Z,99948.66
2023-02-24T05:25:54.986Z,99945.25
2023-02-24T05:28:24.293Z,99940.25
2023-02-24T05:30:52.336Z,99941.97
2023-02-24T05:33:21.580Z,99934.25
2023-02-24T05:35:51.093Z,99937.78
2023-02-24T05:38:19.785Z,99931.09
2023-02-24T05:40:48.469Z,99936.34
2023-02-24T05:43:18.708Z,99937.97
2023-02-24T05:45:47.879Z,99945.56
2023-02-24T05:48:16.043Z,99930.91
2023-02-24T05:50:46.270Z,99931.69
2023-02-24T05:53:14.051Z,99932.53
2023-02-24T05:55:43.617Z,99938.44
2023-02-24T05:58:11.390Z,99931.50
2023-02-24T06:00:39.149Z,99946.13
2023-02-24T06:03:10.530Z,99942.88
2023-02-24T06:05:42.601Z,99949.84
2023-02-24T06:08:11.827Z,99955.81
2023-02-24T06:10:41.521Z,99947.09
2023-02-24T06:13:10.388Z,99946.25
2023-02-24T06:15:38.594Z,99938.59
2023-02-24T06:18:07.092Z,99947.09
2023-02-24T06:20:36.288Z,99938.31
2023-02-24T06:23:05.379Z,99941.84
2023-02-24T06:25:33.394Z,99939.09
2023-02-24T06:28:01.897Z,99943.28
2023-02-24T06:30:29.674Z,99934.53
2023-02-24T06:32:57.607Z,99941.31
2023-02-24T06:35:25.305Z,99935.28
2023-02-24T06:37:55.878Z,99936.81
2023-02-24T06:40:23.674Z,99932.47
2023-02-24T06:42:54.053Z,99926.28
2023-02-24T06:45:22.516Z,99922.31
2023-02-24T06:47:50.119Z,99918.78
2023-02-24T06:50:20.198Z,99913.44
2023-02-24T06:52:49.110Z,99921.81
2023-02-24T06:55:27.259Z,99913.06
2023-02-24T06:57:57.343Z,99902.81
2023-02-24T07:00:36.982Z,99901.09
2023-02-24T07:03:14.772Z,99907.00
2023-02-24T07:05:50.365Z,99898.31
2023-02-24T07:08:19.045Z,99904.94
2023-02-24T07:10:52.697Z,99900.59
2023-02-24T07:13:20.366Z,99904.69
2023-02-24T07:15:49.856Z,99903.94
2023-02-24T07:18:17.668Z,99903.16
2023-02-24T07:20:46.576Z,99905.53
2023-02-24T07:23:15.114Z,99907.13
2023-02-24T07:25:43.429Z,99905.41
2023-02-24T07:28:12.691Z,99908.09
2023-02-24T07:30:41.480Z,99909.06
2023-02-24T07:33:09.725Z,99904.69
2023-02-24T07:35:37.348Z,99902.00
2023-02-24T07:38:05.667Z,99906.94
2023-02-24T07:40:33.923Z,99907.53
2023-02-24T07:43:01.940Z,99898.72
2023-02-24T07:45:31.000Z,99896.78
2023-02-24T07:48:01.292Z,99894.28
2023-02-24T07:50:32.784Z,99887.41
2023-02-24T07:53:03.986Z,99885.66
2023-02-24T07:55:31.618Z,99876.72
2023-02-24T07:58:01.508Z,99886.13
2023-02-24T08:00:30.146Z,99882.50
2023-02-24T08:03:00.251Z,99880.50
2023-02-24T08:05:27.976Z,99880.59
2023-02-24T08:07:59.595Z,99885.59
2023-02-24T08:10:28.450Z,99877.63
2023-02-24T08:13:03.010Z,99880.72
2023-02-24T08:15:34.230Z,99881.50
2023-02-24T08:18:03.606Z,99874.75
2023-02-24T08:20:51.977Z,99874.13
2023-02-24T08:23:19.907Z,99874.47
2023-02-24T08:25:47.635Z,99866.69
2023-02-24T08:28:15.401Z,99867.41
2023-02-24T08:30:46.458Z,99864.63
2023-02-24T08:33:18.946Z,99860.31
2023-02-24T08:35:51.245Z,99860.91
2023-02-24T08:38:20.798Z,99858.13
2023-02-24T08:40:54.584Z,99860.50
2023-02-24T08:43:32.799Z,99865.59
2023-02-24T08:46:03.838Z,99864.06
2023-02-24T08:48:38.054Z,99868.22
2023-02-24T08:51:07.827Z,99860.66
2023-02-24T08:53:40.338Z,99864.69
2023-02-24T08:56:11.553Z,99867.22
2023-02-24T08:58:46.541Z,99869.06
2023-02-24T09:01:19.871Z,99866.50
2023-02-24T09:03:49.879Z,99868.22
2023-02-24T09:06:25.524Z,99862.81
2023-02-24T09:09:15.159Z,99865.31
2023-02-24T09:11:44.256Z,99867.59
2023-02-24T09:14:26.181Z,99862.53
2023-02-24T09:17:05.931Z,99851.47
2023-02-24T09:19:57.916Z,99849.94
2023-02-24T09:22:57.276Z,99846.25
2023-02-24T09:25:26.032Z,99838.94
2023-02-24T09:27:55.956Z,99844.38
2023-02-24T09:30:38.522Z,99847.72
2023-02-24T09:33:21.034Z,99836.34
2023-02-24T09:35:51.610Z,99837.88
2023-02-24T09:38:20.514Z,99841.84
2023-02-24T09:40:52.327Z,99837.00
2023-02-24T09:43:21.761Z,99836.22
2023-02-24T09:45:54.329Z,99839.41
2023-02-24T09:48:32.069Z,99836.28
2023-02-24T09:51:06.166Z,99833.22
2023-02-24T09:53:49.417Z,99835.72
2023-02-24T09:56:22.172Z,99830.63
2023-02-24T09:58:53.265Z,99833.91
2023-02-24T10:01:42.856Z,99826.09
2023-02-24T10:04:49.196Z,99820.66
2023-02-24T10:07:19.949Z,99821.41
2023-02-24T10:09:50.798Z,99814.59
2023-02-24T10:12:24.223Z,99815.59
2023-02-24T10:15:00.065Z,99813.47
2023-02-24T10:17:40.072Z,99821.13
2023-02-24T10:20:28.590Z,99818.25
2023-02-24T10:23:00.736Z,99818.94
2023-02-24T10:25:36.847Z,99815.00
2023-02-24T10:28:07.529Z,99815.44
2023-02-24T10:30:43.588Z,99814.16
2023-02-24T10:33:18.505Z,99818.31
2023-02-24T10:35:46.181Z,99810.81
2023-02-24T10:38:16.023Z,99817.03
2023-02-24T10:40:47.698Z,99813.16
2023-02-24T10:43:17.928Z,99812.50
2023-02-24T10:45:46.276Z,99815.97
2023-02-24T10:48:40.328Z,99809.31
2023-02-24T10:51:10.096Z,99801.50
2023-02-24T10:53:39.298Z,99810.00
2023-02-24T10:56:26.544Z,99810.81
2023-02-24T10:59:20.605Z,99810.66
2023-02-24T11:01:59.203Z,99815.16
2023-02-24T11:04:53.937Z,99817.56
2023-02-24T11:07:44.171Z,99808.47
2023-02-24T11:10:18.986Z,99808.91
2023-02-24T11:13:09.960Z,99795.31
2023-02-24T11:15:56.609Z,99796.13
2023-02-24T11:18:26.170Z,99790.16
2023-02-24T11:20:55.300Z,99786.09
2023-02-24T11:23:25.083Z,99782.50
2023-02-24T11:25:58.260Z,99779.78
2023-02-24T11:28:43.577Z,99776.28
2023-02-24T11:31:17.540Z,99777.34
2023-02-24T11:33:49.389Z,99775.34
2023-02-24T11:36:22.730Z,99773.53
2023-02-24T11:39:00.783Z,99773.63
2023-02-24T11:41:41.046Z,99772.84
2023-02-24T11:44:15.003Z,99773.47
2023-02-24T11:46:45.464Z,99772.69
2023-02-24T11:49:23.048Z,99769.47
2023-02-24T11:51:51.268Z,99759.88
2023-02-24T11:54:18.941Z,99770.72
2023-02-24T11:56:50.016Z,99769.88
2023-02-24T11:59:19.893Z,99769.00
2023-02-24T12:01:49.361Z,99764.16
2023-02-24T12:04:20.968Z,99760.59
2023-02-24T12:06:52.059Z,99754.88
2023-02-24T12:09:22.918Z,99757.00
2023-02-24T12:11:57.902Z,99751.69
2023-02-24T12:14:29.435Z,99760.50
2023-02-24T12:17:01.252Z,99756.28
2023-02-24T12:19:31.257Z,99749.28
2023-02-24T12:22:03.098Z,99757.63
2023-02-24T12:24:30.829Z,99759.03
2023-02-24T12:27:06.521Z,99743.97
2023-02-24T12:29:42.573Z,99745.34
2023-02-24T12:32:15.898Z,99745.50
2023-02-24T12:34:51.544Z,99746.31
2023-02-24T12:37:27.379Z,99743.97
2023-02-24T12:39:59.961Z,99746.13
2023-02-24T12:42:34.855Z,99747.69
2023-02-24T12:45:05.349Z,99741.78
2023-02-24T12:47:36.542Z,99745.28
2023-02-24T12:50:26.956Z,99742.38
2023-02-24T12:52:57.709Z,99749.13
2023-02-24T12:55:28.599Z,99743.97
2023-02-24T12:58:01.217Z,99745.56
2023-02-24T13:00:34.298Z,99742.22
2023-02-24T13:03:06.440Z,99739.66
2023-02-24T13:05:38.541Z,99743.66
2023-02-24T13:08:11.933Z,99737.69
2023-02-24T13:10:45.910Z,99734.88
2023-02-24T13:13:20.825Z,99741.22
2023-02-24T13:15:53.081Z,99743.16
2023-02-24T13:18:28.020Z,99739.81
2023-02-24T13:21:03.829Z,99739.66
2023-02-24T13:23:31.805Z,99743.72
2023-02-24T13:25:59.584Z,99739.72
2023-02-24T13:28:31.166Z,99740.03
2023-02-24T13:30:59.794Z,99735.59
2023-02-24T13:33:31.219Z,99743.00
2023-02-24T13:36:10.408Z,99739.88
2023-02-24T13:38:39.310Z,99738.16
2023-02-24T13:41:08.306Z,99747.63
2023-02-24T13:43:37.459Z,99748.63
2023-02-24T13:46:18.202Z,99737.63
2023-02-24T13:49:04.068Z,99736.94
2023-02-24T13:51:46.482Z,99737.78
2023-02-24T13:54:21.173Z,99740.97
2023-02-24T13:56:53.678Z,99740.13
2023-02-24T13:59:36.200Z,99745.19
2023-02-24T14:02:12.982Z,99749.97
2023-02-24T14:04:46.616Z,99749.16
2023-02-24T14:07:20.412Z,99749.88
2023-02-24T14:09:49.809Z,99750.53
2023-02-24T14:12:19.375Z,99745.44
2023-02-24T14:14:48.224Z,99750.75
2023-02-24T14:17:28.381Z,99748.41
2023-02-24T14:19:56.948Z,99745.59
2023-02-24T14:22:24.639Z,99747.34
2023-02-24T14:25:02.171Z,99748.19
2023-02-24T14:27:33.052Z,99752.63
2023-02-24T14:30:00.766Z,99752.03
2023-02-24T14:32:33.698Z,99761.72
2023-02-24T14:35:01.491Z,99764.31
2023-02-24T14:37:30.889Z,99766.25
2023-02-24T14:39:59.586Z,99756.88
2023-02-24T14:42:28.062Z,99753.69
2023-02-24T14:44:56.864Z,99759.53
2023-02-24T14:47:25.930Z,99758.69
2023-02-24T14:49:56.669Z,99762.31
2023-02-24T14:52:28.401Z,99763.34
2023-02-24T14:54:58.351Z,99764.28
2023-02-24T14:57:27.702Z,99760.94
2023-02-24T14:59:56.933Z,99760.13
2023-02-24T15:02:28.801Z,99758.50
2023-02-24T15:04:58.488Z,99762.06
2023-02-24T15:07:27.469Z,99760.47
2023-02-24T15:09:55.843Z,99758.06
2023-02-24T15:12:28.342Z,99754.78
2023-02-24T15:14:57.740Z,99753.97
2023-02-24T15:17:25.687Z,99754.94
2023-02-24T15:19:55.676Z,99757.44
2023-02-24T15:22:27.023Z,99747.34
2023-02-24T15:24:55.971Z,99759.41
2023-02-24T15:27:26.426Z,99756.19
2023-02-24T15:30:06.319Z,99758.91
2023-02-24T15:32:35.379Z,99759.91
2023-02-24T15:35:04.448Z,99760.25
2023-02-24T15:37:38.127Z,99759.75
2023-02-24T15:40:07.211Z,99764.38
2023-02-24T15:42:35.615Z,99757.75
2023-02-24T15:45:05.554Z,99764.16
2023-02-24T15:47:42.487Z,99760.28
2023-02-24T15:50:10.830Z,99760.88
2023-02-24T15:52:41.323Z,99768.88
2023-02-24T15:55:11.544Z,99763.03
2023-02-24T15:57:39.274Z,99766.44
2023-02-24T16:00:13.130Z,99763.38
2023-02-24T16:02:41.203Z,99761.84
2023-02-24T16:05:10.507Z,99770.53
2023-02-24T16:07:38.622Z,99767.97
2023-02-24T16:10:09.784Z,99773.28
2023-02-24T16:12:39.462Z,99768.16
2023-02-24T16:15:07.992Z,99776.13
2023-02-24T16:17:37.663Z,99771.13
2023-02-24T16:20:09.089Z,99773.81
2023-02-24T16:22:37.040Z,99775.97
2023-02-24T16:25:05.031Z,99761.56
2023-02-24T16:27:34.604Z,99768.66
2023-02-24T16:30:02.575Z,99765.19
2023-02-24T16:32:30.460Z,99766.34
2023-02-24T16:34:58.286Z,99772.31
2023-02-24T16:37:28.374Z,99772.44
2023-02-24T16:39:56.020Z,99778.66
2023-02-24T16:42:23.721Z,99777.00
2023-02-24T16:44:52.862Z,99789.91
2023-02-24T16:47:23.439Z,99787.59
2023-02-24T16:49:54.830Z,99794.53
2023-02-24T16:52:23.505Z,99800.50
2023-02-24T16:54:51.212Z,99800.50
2023-02-24T16:57:18.837Z,99793.78
2023-02-24T16:59:46.501Z,99800.50
2023-02-24T17:02:19.374Z,99804.09
2023-02-24T17:04:47.032Z,99804.72
2023-02-24T17:07:16.195Z,99799.66
2023-02-24T17:09:44.008Z,99807.84
2023-02-24T17:12:12.709Z,99807.84
2023-02-24T17:14:40.406Z,99802.63
2023-02-24T17:17:08.243Z,99805.06
2023-02-24T17:19:37.360Z,99807.63
2023-02-24T17:22:05.633Z,99811.16
2023-02-24T17:24:33.272Z,99812.00
2023-02-24T17:27:01.323Z,99811.03
2023-02-24T17:29:29.039Z,99817.00
2023-02-24T17:31:57.497Z,99816.16
2023-02-24T17:34:25.345Z,99814.63
2023-02-24T17:36:54.493Z,99824.84
2023-02-24T17:39:22.173Z,99813.94
2023-02-24T17:41:49.809Z,99823.50
2023-02-24T17:44:17.420Z,99822.78
2023-02-24T17:46:45.099Z,99825.28
2023-02-24T17:49:12.757Z,99833.03
2023-02-24T17:51:40.384Z,99832.28
2023-02-24T17:54:09.528Z,99835.53
2023-02-24T17:56:37.447Z,99836.38
2023-02-24T17:59:05.153Z,99837.03
2023-02-24T18:01:32.787Z,99836.25
2023-02-24T18:04:00.439Z,99838.91
2023-02-24T18:06:28.256Z,99840.63
2023-02-24T18:08:55.953Z,99840.69
2023-02-24T18:11:24.933Z,99851.97
2023-02-24T18:13:55.140Z,99851.97
2023-02-24T18:16:23.191Z,99852.94
2023-02-24T18:18:51.117Z,99854.66
2023-02-24T18:21:18.999Z,99848.63
2023-02-24T18:23:49.079Z,99855.56
2023-02-24T18:26:17.217Z,99849.78
2023-02-24T18:28:46.243Z,99859.19
2023-02-24T18:31:14.895Z,99853.38
2023-02-24T18:33:43.094Z,99859.56
2023-02-24T18:36:11.363Z,99855.22
2023-02-24T18:38:38.985Z,99849.22
2023-02-24T18:41:07.277Z,99845.69
2023-02-24T18:43:36.002Z,99851.00
2023-02-24T18:46:06.448Z,99843.22
2023-02-24T18:48:34.509Z,99851.81
2023-02-24T18:51:02.622Z,99848.53
2023-02-24T18:53:31.704Z,99856.25
2023-02-24T18:55:59.965Z,99849.78
2023-02-24T18:58:27.821Z,99848.22
2023-02-24T19:00:55.425Z,99848.28
2023-02-24T19:03:24.829Z,99850.34
2023-02-24T19:05:52.936Z,99851.16
2023-02-24T19:08:20.599Z,99851.88
2023-02-24T19:10:48.384Z,99852.66
2023-02-24T19:13:16.023Z,99849.31
2023-02-24T19:15:44.765Z,99851.72
2023-02-24T19:18:12.705Z,99852.53
2023-02-24T19:20:44.281Z,99848.22
2023-02-24T19:23:11.986Z,99848.22
2023-02-24T19:25:39.676Z,99849.91
2023-02-24T19:28:07.379Z,99845.66
2023-02-24T19:30:35.054Z,99847.31
2023-02-24T19:33:02.809Z,99846.47
2023-02-24T19:35:30.542Z,99848.13
2023-02-24T19:37:59.577Z,99856.72
2023-02-24T19:40:27.297Z,99859.22
2023-02-24T19:42:54.910Z,99851.59
2023-02-24T19:45:22.626Z,99858.56
2023-02-24T19:47:50.712Z,99860.28
2023-02-24T19:50:18.682Z,99852.59
2023-02-24T19:52:46.436Z,99856.84
2023-02-24T19:55:15.546Z,99856.91
2023-02-24T19:57:43.192Z,99860.28
2023-02-24T20:00:12.213Z,99860.22
2023-02-24T20:02:40.116Z,99858.72
2023-02-24T20:05:10.368Z,99850.34
2023-02-24T20:07:38.675Z,99857.00
2023-02-24T20:10:06.861Z,99852.66
2023-02-24T20:12:35.987Z,99847.53
2023-02-24T20:15:03.631Z,99853.59
2023-02-24T20:17:31.393Z,99851.81
2023-02-24T20:19:59.045Z,99850.09
2023-02-24T20:22:26.696Z,99861.25
2023-02-24T20:24:54.353Z,99860.28
2023-02-24T20:27:21.950Z,99862.94
2023-02-24T20:29:53.457Z,99867.28
2023-02-24T20:32:21.456Z,99871.50
2023-02-24T20:34:49.630Z,99868.88
2023-02-24T20:37:17.479Z,99867.91
2023-02-24T20:39:45.101Z,99875.69
2023-02-24T20:42:13.627Z,99873.06
2023-02-24T20:44:41.344Z,99868.75
2023-02-24T20:47:10.396Z,99868.75
2023-02-24T20:49:39.313Z,99872.13
2023-02-24T20:52:07.124Z,99879.03
2023-02-24T20:54:35.162Z,99873.91
2023-02-24T20:57:02.887Z,99879.75
2023-02-24T20:59:30.745Z,99879.69
2023-02-24T21:01:59.643Z,99878.06
2023-02-24T21:04:28.638Z,99884.88
2023-02-24T21:06:56.766Z,99881.41
2023-02-24T21:09:24.430Z,99880.56
2023-02-24T21:11:52.105Z,99883.94
2023-02-24T21:14:20.384Z,99885.66
2023-02-24T21:16:48.069Z,99885.69
2023-02-24T21:19:17.738Z,99885.59
2023-02-24T21:21:46.885Z,99885.53
2023-02-24T21:24:14.598Z,99882.97
2023-02-24T21:26:42.317Z,99883.03
2023-02-24T21:29:09.934Z,99884.66
2023-02-24T21:31:37.721Z,99882.91
2023-02-24T21:34:07.823Z,99882.03
2023-02-24T21:36:37.780Z,99882.09
2023-02-24T21:39:07.494Z,99876.06
2023-02-24T21:41:36.155Z,99877.78
2023-02-24T21:44:05.023Z,99875.09
2023-02-24T21:46:32.704Z,99878.63
2023-02-24T21:49:00.922Z,99877.72
2023-02-24T21:51:29.580Z,99875.03
2023-02-24T21:53:57.601Z,99878.50
2023-02-24T21:56:27.926Z,99874.22
2023-02-24T21:58:57.907Z,99872.56
2023-02-24T22:01:27.142Z,99874.16
2023-02-24T22:03:55.482Z,99878.38
2023-02-24T22:06:23.498Z,99884.34
2023-02-24T22:08:51.357Z,99883.44
2023-02-24T22:11:19.657Z,99883.41
2023-02-24T22:13:49.093Z,99877.28
2023-02-24T22:16:19.110Z,99884.13
2023-02-24T22:18:47.327Z,99873.84
2023-02-24T22:21:17.361Z,99876.34
2023-02-24T22:23:45.610Z,99873.66
2023-02-24T22:26:13.921Z,99872.75
2023-02-24T22:28:42.612Z,99877.06
2023-02-24T22:31:12.825Z,99876.94
2023-02-24T22:33:41.845Z,99881.19
2023-02-24T22:36:10.161Z,99875.09
2023-02-24T22:38:38.435Z,99881.00
2023-02-24T22:41:07.036Z,99868.09
2023-02-24T22:43:34.744Z,99874.84
2023-02-24T22:46:04.154Z,99879.84
2023-02-24T22:48:33.978Z,99869.47
2023-02-24T22:51:04.107Z,99876.25
2023-02-24T22:53:32.880Z,99875.28
2023-02-24T22:56:00.577Z,99882.88
2023-02-24T22:58:28.507Z,99881.22
2023-02-24T23:00:56.246Z,99884.63
2023-02-24T23:03:24.748Z,99889.63
2023-02-24T23:05:56.980Z,99888.78
2023-02-24T23:08:24.949Z,99895.59
2023-02-24T23:10:52.859Z,99893.81
2023-02-24T23:13:20.960Z,99890.34
2023-02-24T23:15:48.949Z,99886.81
2023-02-24T23:18:16.603Z,99890.16
2023-02-24T23:20:44.787Z,99897.09
2023-02-24T23:23:13.799Z,99895.22
2023-02-24T23:25:42.155Z,99890.81
2023-02-24T23:28:09.837Z,99889.91
2023-02-24T23:30:41.741Z,99890.75
2023-02-24T23:33:11.128Z,99894.97
2023-02-24T23:35:40.754Z,99900.91
2023-02-24T23:38:08.768Z,99896.53
2023-02-24T23:40:49.672Z,99897.34
2023-02-24T23:43:17.976Z,99898.97
2023-02-24T23:45:45.737Z,99894.53
2023-02-24T23:48:14.765Z,99893.66
2023-02-24T23:50:43.491Z,99897.81
2023-02-24T23:53:11.234Z,99897.69
2023-02-24T23:55:42.136Z,99896.66
2023-02-24T23:58:09.791Z,99893.06
